createdAt,value
2023-06-10T00:01:00.968Z,69.25
2023-06-10T00:03:55.771Z,69.26
2023-06-10T00:06:50.835Z,69.59
2023-06-10T00:09:42.798Z,69.15
2023-06-10T00:12:56.784Z,69.10
2023-06-10T00:16:20.040Z,68.85
2023-06-10T00:19:21.922Z,68.58
2023-06-10T00:22:26.951Z,68.82
2023-06-10T00:25:35.979Z,69.13
2023-06-10T00:28:36.423Z,68.71
2023-06-10T00:31:27.493Z,68.57
2023-06-10T00:34:22.183Z,68.66
2023-06-10T00:37:01.453Z,68.44
2023-06-10T00:39:55.291Z,68.57
2023-06-10T00:42:34.963Z,68.34
2023-06-10T00:45:28.970Z,68.72
2023-06-10T00:48:23.267Z,68.42
2023-06-10T00:51:18.859Z,68.15
2023-06-10T00:54:14.672Z,68.04
2023-06-10T00:57:09.643Z,67.86
2023-06-10T01:00:08.430Z,67.85
2023-06-10T01:03:03.966Z,67.98
2023-06-10T01:06:29.796Z,68.02
2023-06-10T01:09:44.780Z,67.43
2023-06-10T01:12:53.490Z,67.94
2023-06-10T01:15:50.144Z,67.91
2023-06-10T01:18:45.652Z,67.61
2023-06-10T01:21:51.792Z,67.63
2023-06-10T01:24:58.784Z,67.48
2023-06-10T01:27:55.559Z,66.57
2023-06-10T01:30:52.776Z,66.26
2023-06-10T01:33:55.134Z,66.81
2023-06-10T01:36:51.590Z,66.69
2023-06-10T01:39:47.570Z,66.35
2023-06-10T01:42:41.724Z,67.05
2023-06-10T01:45:18.593Z,67.23
2023-06-10T01:48:12.629Z,67.34
2023-06-10T01:51:07.169Z,67.18
2023-06-10T01:54:01.496Z,67.65
2023-06-10T01:56:55.727Z,67.02
2023-06-10T01:59:35.136Z,67.04
2023-06-10T02:02:29.326Z,66.86
2023-06-10T02:05:24.070Z,66.16
2023-06-10T02:08:18.094Z,66.15
2023-06-10T02:11:11.967Z,66.77
2023-06-10T02:14:07.050Z,67.13
2023-06-10T02:17:01.894Z,67.06
2023-06-10T02:19:57.229Z,67.35
2023-06-10T02:22:51.027Z,67.29
2023-06-10T02:25:45.192Z,67.76
2023-06-10T02:28:39.253Z,67.92
2023-06-10T02:31:36.519Z,67.51
2023-06-10T02:34:30.801Z,68.20
2023-06-10T02:37:14.915Z,67.82
2023-06-10T02:40:11.646Z,67.45
2023-06-10T02:43:05.987Z,68.09
2023-06-10T02:46:00.004Z,68.33
2023-06-10T02:48:54.347Z,67.52
2023-06-10T02:51:48.532Z,68.32
2023-06-10T02:54:42.765Z,68.28
2023-06-10T02:57:36.851Z,68.66
2023-06-10T03:00:31.214Z,68.42
2023-06-10T03:03:26.778Z,67.76
2023-06-10T03:06:20.987Z,67.54
2023-06-10T03:09:15.814Z,67.20
2023-06-10T03:12:12.812Z,67.72
2023-06-10T03:15:08.154Z,67.08
2023-06-10T03:18:03.610Z,66.96
2023-06-10T03:20:48.262Z,66.97
2023-06-10T03:23:42.250Z,66.90
2023-06-10T03:26:36.473Z,67.62
2023-06-10T03:29:13.769Z,67.95
2023-06-10T03:31:53.447Z,67.58
2023-06-10T03:34:48.587Z,68.13
2023-06-10T03:37:42.798Z,68.35
2023-06-10T03:40:27.298Z,68.07
2023-06-10T03:43:11.437Z,67.71
2023-06-10T03:45:55.833Z,68.19
2023-06-10T03:48:49.996Z,68.52
2023-06-10T03:51:44.414Z,68.48
2023-06-10T03:54:38.428Z,68.18
2023-06-10T03:57:32.754Z,67.23
2023-06-10T04:00:28.477Z,67.92
2023-06-10T04:03:25.708Z,67.73
2023-06-10T04:06:18.853Z,67.50
2023-06-10T04:09:11.013Z,67.97
2023-06-10T04:12:31.317Z,68.26
2023-06-10T04:15:15.292Z,67.72
2023-06-10T04:18:12.528Z,67.71
2023-06-10T04:21:49.187Z,67.30
2023-06-10T04:25:00.780Z,67.52
2023-06-10T04:27:46.981Z,67.15
2023-06-10T04:30:24.545Z,67.36
2023-06-10T04:33:18.803Z,67.71
2023-06-10T04:36:15.288Z,67.24
2023-06-10T04:39:09.512Z,67.66
2023-06-10T04:42:03.453Z,67.62
2023-06-10T04:44:57.468Z,67.34
2023-06-10T04:47:51.414Z,67.87
2023-06-10T04:50:45.689Z,67.54
2023-06-10T04:53:39.987Z,67.20
2023-06-10T04:56:34.175Z,66.70
2023-06-10T04:59:28.400Z,67.52
2023-06-10T05:02:23.360Z,67.50
2023-06-10T05:05:08.454Z,67.98
2023-06-10T05:08:03.647Z,67.00
2023-06-10T05:10:41.644Z,67.20
2023-06-10T05:13:19.128Z,67.60
2023-06-10T05:16:13.640Z,67.26
2023-06-10T05:18:57.993Z,67.16
2023-06-10T05:21:37.045Z,67.76
2023-06-10T05:24:16.364Z,67.64
2023-06-10T05:27:11.274Z,67.61
2023-06-10T05:30:05.702Z,67.23
2023-06-10T05:32:59.936Z,67.42
2023-06-10T05:35:37.073Z,67.52
2023-06-10T05:38:31.582Z,67.67
2023-06-10T05:41:26.682Z,67.50
2023-06-10T05:44:20.866Z,67.25
2023-06-10T05:47:14.866Z,67.37
2023-06-10T05:50:10.677Z,67.74
2023-06-10T05:53:04.736Z,68.13
2023-06-10T05:55:58.673Z,70.17
2023-06-10T05:58:35.482Z,71.35
2023-06-10T06:01:29.552Z,72.07
2023-06-10T06:04:23.739Z,71.92
2023-06-10T06:07:17.923Z,71.70
2023-06-10T06:10:13.131Z,71.74
2023-06-10T06:13:07.080Z,72.04
2023-06-10T06:16:01.179Z,72.25
2023-06-10T06:18:37.496Z,71.66
2023-06-10T06:21:31.719Z,72.19
2023-06-10T06:24:25.647Z,71.37
2023-06-10T06:27:19.486Z,70.96
2023-06-10T06:29:58.638Z,71.43
2023-06-10T06:32:53.650Z,71.57
2023-06-10T06:35:47.499Z,71.62
2023-06-10T06:38:26.741Z,71.38
2023-06-10T06:41:20.581Z,71.35
2023-06-10T06:43:54.254Z,71.99
2023-06-10T06:46:30.141Z,72.23
2023-06-10T06:49:24.034Z,72.79
2023-06-10T06:52:00.629Z,72.43
2023-06-10T06:54:54.473Z,72.59
2023-06-10T06:57:34.369Z,72.63
2023-06-10T07:00:28.428Z,72.29
2023-06-10T07:03:07.506Z,71.60
2023-06-10T07:05:48.944Z,72.15
2023-06-10T07:08:25.842Z,72.60
2023-06-10T07:11:20.174Z,72.48
2023-06-10T07:14:13.929Z,72.46
2023-06-10T07:17:08.066Z,72.54
2023-06-10T07:20:01.867Z,71.51
2023-06-10T07:22:55.775Z,70.43
2023-06-10T07:25:49.942Z,70.44
2023-06-10T07:28:44.163Z,70.78
2023-06-10T07:31:24.182Z,70.38
2023-06-10T07:34:01.486Z,70.30
2023-06-10T07:36:39.017Z,69.91
2023-06-10T07:39:32.992Z,72.42
2023-06-10T07:42:27.155Z,72.64
2023-06-10T07:45:21.232Z,72.65
2023-06-10T07:48:00.607Z,73.02
2023-06-10T07:50:55.462Z,72.14
2023-06-10T07:53:49.409Z,71.68
2023-06-10T07:56:43.317Z,71.54
2023-06-10T07:59:37.203Z,71.59
2023-06-10T08:02:31.231Z,71.41
2023-06-10T08:05:25.600Z,71.16
2023-06-10T08:08:09.859Z,70.34
2023-06-10T08:11:04.199Z,70.70
2023-06-10T08:13:57.899Z,70.36
2023-06-10T08:16:42.660Z,70.35
2023-06-10T08:19:28.463Z,69.83
2023-06-10T08:22:22.787Z,70.73
2023-06-10T08:25:16.732Z,70.59
2023-06-10T08:28:11.306Z,70.36
2023-06-10T08:31:05.177Z,70.32
2023-06-10T08:33:59.430Z,69.77
2023-06-10T08:36:38.768Z,69.65
2023-06-10T08:39:33.228Z,70.87
2023-06-10T08:42:36.526Z,70.85
2023-06-10T08:45:24.316Z,70.71
2023-06-10T08:48:19.124Z,70.45
2023-06-10T08:51:13.694Z,70.33
2023-06-10T08:54:17.576Z,70.54
2023-06-10T08:57:11.761Z,69.35
2023-06-10T08:59:52.111Z,70.15
2023-06-10T09:02:47.525Z,70.87
2023-06-10T09:05:43.007Z,70.12
2023-06-10T09:08:37.317Z,70.44
2023-06-10T09:11:14.507Z,70.17
2023-06-10T09:13:53.586Z,70.28
2023-06-10T09:16:32.882Z,70.61
2023-06-10T09:19:18.425Z,70.31
2023-06-10T09:22:12.722Z,69.60
2023-06-10T09:24:53.565Z,70.04
2023-06-10T09:27:56.083Z,70.16
2023-06-10T09:30:50.098Z,70.42
2023-06-10T09:33:45.082Z,69.90
2023-06-10T09:36:40.369Z,69.07
2023-06-10T09:39:34.326Z,68.22
2023-06-10T09:42:28.292Z,68.07
2023-06-10T09:45:09.637Z,67.99
2023-06-10T09:48:04.194Z,68.65
2023-06-10T09:50:58.303Z,69.48
2023-06-10T09:53:55.509Z,69.25
2023-06-10T09:56:51.317Z,68.95
2023-06-10T09:59:46.572Z,69.41
2023-06-10T10:02:49.324Z,68.72
2023-06-10T10:05:43.465Z,68.91
2023-06-10T10:08:38.037Z,68.71
2023-06-10T10:11:33.605Z,69.12
2023-06-10T10:14:28.402Z,68.75
2023-06-10T10:17:25.741Z,68.63
2023-06-10T10:20:07.826Z,68.18
2023-06-10T10:23:05.267Z,68.46
2023-06-10T10:25:54.001Z,68.54
2023-06-10T10:29:00.089Z,68.16
2023-06-10T10:31:56.821Z,67.84
2023-06-10T10:35:00.163Z,67.63
2023-06-10T10:37:55.454Z,67.30
2023-06-10T10:40:50.638Z,67.28
2023-06-10T10:43:45.882Z,67.09
2023-06-10T10:46:52.999Z,66.91
2023-06-10T10:49:51.146Z,66.88
2023-06-10T10:52:28.227Z,66.99
2023-06-10T10:55:26.793Z,66.80
2023-06-10T10:58:27.892Z,66.52
2023-06-10T11:01:21.569Z,66.61
2023-06-10T11:04:15.778Z,66.34
2023-06-10T11:07:16.529Z,66.35
2023-06-10T11:10:07.614Z,66.44
2023-06-10T11:13:02.297Z,66.23
2023-06-10T11:16:00.809Z,66.15
2023-06-10T11:18:57.521Z,66.10
2023-06-10T11:22:06.123Z,65.85
2023-06-10T11:25:00.319Z,65.90
2023-06-10T11:27:55.442Z,65.80
2023-06-10T11:30:59.142Z,65.62
2023-06-10T11:33:55.814Z,65.67
2023-06-10T11:36:49.756Z,65.52
2023-06-10T11:39:43.548Z,65.68
2023-06-10T11:42:40.305Z,65.60
2023-06-10T11:45:34.288Z,65.62
2023-06-10T11:48:29.517Z,65.60
2023-06-10T11:51:24.017Z,65.44
2023-06-10T11:54:18.806Z,65.44
2023-06-10T11:57:13.128Z,65.46
2023-06-10T12:00:12.499Z,65.36
2023-06-10T12:03:01.814Z,65.43
2023-06-10T12:06:08.725Z,65.26
2023-06-10T12:09:14.050Z,65.19
2023-06-10T12:12:16.687Z,65.22
2023-06-10T12:15:14.142Z,65.39
2023-06-10T12:18:08.548Z,65.38
2023-06-10T12:21:04.645Z,65.19
2023-06-10T12:24:13.099Z,65.16
2023-06-10T12:27:08.588Z,65.13
2023-06-10T12:30:05.192Z,64.98
2023-06-10T12:32:59.916Z,65.01
2023-06-10T12:35:55.032Z,64.98
2023-06-10T12:38:53.270Z,64.80
2023-06-10T12:41:53.168Z,64.90
2023-06-10T12:44:47.314Z,64.81
2023-06-10T12:47:50.628Z,64.90
2023-06-10T12:50:46.242Z,64.72
2023-06-10T12:53:41.047Z,64.72
2023-06-10T12:56:20.436Z,64.79
2023-06-10T12:59:14.199Z,64.64
2023-06-10T13:02:08.556Z,64.79
2023-06-10T13:05:03.797Z,64.65
2023-06-10T13:07:58.547Z,64.53
2023-06-10T13:10:52.694Z,64.55
2023-06-10T13:13:47.221Z,64.67
2023-06-10T13:16:41.727Z,64.62
2023-06-10T13:19:35.859Z,64.49
2023-06-10T13:22:21.254Z,64.52
2023-06-10T13:25:15.956Z,64.33
2023-06-10T13:28:10.519Z,64.33
2023-06-10T13:31:04.375Z,64.26
2023-06-10T13:33:44.842Z,64.22
2023-06-10T13:36:38.664Z,64.25
2023-06-10T13:39:15.634Z,64.44
2023-06-10T13:41:53.131Z,64.27
2023-06-10T13:44:48.400Z,64.29
2023-06-10T13:47:42.322Z,64.07
2023-06-10T13:50:36.208Z,64.24
2023-06-10T13:53:30.159Z,64.08
2023-06-10T13:56:24.105Z,64.17
2023-06-10T13:59:18.037Z,64.00
2023-06-10T14:01:54.113Z,64.11
2023-06-10T14:04:48.146Z,64.09
2023-06-10T14:07:42.024Z,64.01
2023-06-10T14:10:36.065Z,63.95
2023-06-10T14:13:30.560Z,63.94
2023-06-10T14:16:07.608Z,64.03
2023-06-10T14:19:01.765Z,63.87
2023-06-10T14:21:56.532Z,63.75
2023-06-10T14:24:40.824Z,63.84
2023-06-10T14:27:34.974Z,63.89
2023-06-10T14:30:28.797Z,63.73
2023-06-10T14:33:05.322Z,63.68
2023-06-10T14:35:59.439Z,63.83
2023-06-10T14:38:53.224Z,63.76
2023-06-10T14:41:47.142Z,63.77
2023-06-10T14:44:40.861Z,63.91
2023-06-10T14:47:35.456Z,63.64
2023-06-10T14:50:29.863Z,63.66
2023-06-10T14:53:23.623Z,63.59
2023-06-10T14:56:17.470Z,63.44
2023-06-10T14:59:11.612Z,63.38
2023-06-10T15:02:05.945Z,63.52
2023-06-10T15:04:59.858Z,63.58
2023-06-10T15:07:54.727Z,63.34
2023-06-10T15:10:49.441Z,63.52
2023-06-10T15:13:43.368Z,63.39
2023-06-10T15:16:35.077Z,63.31
2023-06-10T15:19:29.127Z,63.47
2023-06-10T15:22:23.198Z,63.57
2023-06-10T15:25:30.127Z,63.36
2023-06-10T15:28:28.151Z,63.27
2023-06-10T15:31:09.120Z,63.37
2023-06-10T15:33:48.602Z,63.52
2023-06-10T15:36:42.553Z,63.46
2023-06-10T15:39:36.318Z,63.50
2023-06-10T15:42:15.386Z,63.38
2023-06-10T15:45:12.415Z,63.45
2023-06-10T15:47:57.689Z,63.40
2023-06-10T15:50:51.963Z,63.49
2023-06-10T15:53:27.976Z,63.63
2023-06-10T15:56:22.142Z,63.44
2023-06-10T15:58:59.292Z,63.68
2023-06-10T16:01:53.147Z,63.31
2023-06-10T16:04:47.528Z,63.44
2023-06-10T16:07:41.865Z,63.40
2023-06-10T16:10:35.600Z,63.45
2023-06-10T16:13:20.083Z,63.56
2023-06-10T16:16:02.902Z,63.57
2023-06-10T16:18:39.233Z,63.47
2023-06-10T16:21:16.232Z,63.58
2023-06-10T16:24:11.857Z,63.46
2023-06-10T16:27:07.911Z,63.43
2023-06-10T16:30:02.057Z,63.46
2023-06-10T16:32:55.794Z,63.37
2023-06-10T16:35:33.056Z,63.45
2023-06-10T16:38:27.151Z,63.48
2023-06-10T16:41:21.073Z,63.45
2023-06-10T16:43:59.629Z,63.41
2023-06-10T16:46:54.950Z,63.51
2023-06-10T16:49:50.699Z,63.54
2023-06-10T16:52:45.760Z,63.48
2023-06-10T16:55:24.809Z,63.62
2023-06-10T16:58:18.963Z,63.58
2023-06-10T17:01:13.253Z,63.42
2023-06-10T17:04:07.589Z,63.54
2023-06-10T17:06:41.368Z,63.58
2023-06-10T17:09:35.524Z,63.49
2023-06-10T17:12:15.186Z,63.57
2023-06-10T17:14:51.881Z,63.68
2023-06-10T17:17:31.229Z,64.14
2023-06-10T17:20:13.140Z,63.94
2023-06-10T17:23:08.854Z,64.01
2023-06-10T17:25:53.053Z,64.02
2023-06-10T17:28:49.220Z,63.91
2023-06-10T17:31:26.231Z,63.96
2023-06-10T17:34:03.127Z,64.01
2023-06-10T17:36:57.103Z,63.72
2023-06-10T17:39:51.468Z,63.81
2023-06-10T17:42:30.670Z,63.89
2023-06-10T17:45:24.591Z,63.83
2023-06-10T17:48:09.187Z,63.70
2023-06-10T17:51:03.029Z,63.82
2023-06-10T17:53:56.786Z,63.81
2023-06-10T17:56:51.614Z,63.69
2023-06-10T17:59:30.528Z,63.61
2023-06-10T18:02:24.481Z,63.51
2023-06-10T18:05:18.766Z,63.56
2023-06-10T18:08:12.872Z,63.59
2023-06-10T18:11:06.706Z,63.72
2023-06-10T18:14:00.867Z,63.46
2023-06-10T18:16:54.547Z,63.40
2023-06-10T18:19:48.945Z,63.35
2023-06-10T18:22:43.473Z,63.10
2023-06-10T18:25:23.332Z,63.05
2023-06-10T18:28:17.091Z,62.88
2023-06-10T18:31:10.968Z,62.81
2023-06-10T18:34:04.863Z,62.82
2023-06-10T18:36:59.925Z,62.61
2023-06-10T18:39:54.440Z,62.74
2023-06-10T18:42:48.929Z,62.86
2023-06-10T18:45:43.708Z,62.73
2023-06-10T18:48:37.943Z,62.67
2023-06-10T18:51:31.994Z,62.85
2023-06-10T18:54:26.035Z,62.73
2023-06-10T18:57:20.538Z,62.70
2023-06-10T19:00:18.039Z,62.64
2023-06-10T19:03:11.912Z,62.63
2023-06-10T19:06:06.597Z,62.52
2023-06-10T19:08:47.691Z,62.67
2023-06-10T19:11:41.793Z,62.72
2023-06-10T19:14:36.944Z,62.51
2023-06-10T19:17:32.237Z,62.50
2023-06-10T19:20:26.409Z,62.55
2023-06-10T19:23:20.722Z,62.60
2023-06-10T19:26:15.015Z,62.44
2023-06-10T19:29:09.087Z,62.45
2023-06-10T19:32:03.157Z,62.43
2023-06-10T19:34:57.298Z,62.37
2023-06-10T19:37:52.047Z,62.49
2023-06-10T19:40:45.787Z,62.33
2023-06-10T19:43:39.682Z,62.47
2023-06-10T19:46:34.116Z,62.44
2023-06-10T19:49:28.384Z,62.47
2023-06-10T19:52:24.389Z,62.39
2023-06-10T19:55:19.069Z,62.39
2023-06-10T19:58:03.864Z,62.39
2023-06-10T20:00:58.087Z,62.34
2023-06-10T20:03:52.207Z,62.27
2023-06-10T20:06:47.174Z,62.45
2023-06-10T20:09:41.661Z,62.27
2023-06-10T20:12:35.663Z,62.55
2023-06-10T20:15:29.621Z,62.46
2023-06-10T20:18:24.538Z,62.46
2023-06-10T20:21:20.025Z,62.57
2023-06-10T20:24:14.444Z,62.50
2023-06-10T20:27:09.904Z,62.48
2023-06-10T20:30:03.945Z,62.17
2023-06-10T20:32:57.822Z,62.21
2023-06-10T20:35:34.849Z,62.22
2023-06-10T20:38:30.041Z,62.13
2023-06-10T20:41:23.922Z,62.26
2023-06-10T20:43:59.792Z,62.22
2023-06-10T20:46:54.001Z,62.19
2023-06-10T20:49:48.457Z,62.25
2023-06-10T20:52:42.999Z,62.17
2023-06-10T20:55:37.073Z,62.23
2023-06-10T20:58:31.366Z,62.15
2023-06-10T21:01:26.614Z,62.17
2023-06-10T21:04:12.649Z,62.13
2023-06-10T21:07:07.390Z,62.08
2023-06-10T21:10:01.631Z,62.41
2023-06-10T21:12:38.497Z,62.03
2023-06-10T21:15:32.707Z,62.19
2023-06-10T21:18:27.270Z,62.06
2023-06-10T21:21:21.627Z,62.14
2023-06-10T21:24:15.426Z,62.11
2023-06-10T21:26:52.229Z,62.19
2023-06-10T21:29:46.783Z,62.13
2023-06-10T21:32:41.214Z,62.16
2023-06-10T21:35:35.535Z,62.27
2023-06-10T21:38:29.506Z,62.15
2023-06-10T21:41:08.738Z,62.27
2023-06-10T21:44:02.424Z,62.22
2023-06-10T21:46:56.206Z,61.94
2023-06-10T21:49:40.061Z,62.04
2023-06-10T21:52:34.266Z,61.97
2023-06-10T21:55:28.076Z,61.84
2023-06-10T21:58:07.409Z,61.99
2023-06-10T22:01:01.316Z,61.87
2023-06-10T22:03:55.594Z,62.01
2023-06-10T22:06:49.405Z,61.85
2023-06-10T22:09:26.023Z,61.78
2023-06-10T22:12:20.239Z,61.83
2023-06-10T22:15:15.162Z,61.65
2023-06-10T22:18:10.546Z,61.77
2023-06-10T22:21:04.444Z,61.75
2023-06-10T22:23:58.444Z,61.90
2023-06-10T22:26:52.179Z,61.76
2023-06-10T22:29:44.508Z,61.74
2023-06-10T22:32:38.947Z,61.61
2023-06-10T22:35:33.151Z,61.77
2023-06-10T22:38:27.252Z,61.71
2023-06-10T22:41:21.792Z,61.69
2023-06-10T22:44:01.705Z,61.62
2023-06-10T22:46:55.436Z,61.90
2023-06-10T22:49:49.230Z,61.65
2023-06-10T22:52:43.097Z,61.74
2023-06-10T22:55:37.468Z,61.73
2023-06-10T22:58:31.461Z,61.76
2023-06-10T23:01:10.571Z,61.95
2023-06-10T23:04:04.503Z,61.78
2023-06-10T23:06:58.608Z,61.89
2023-06-10T23:09:53.118Z,61.86
2023-06-10T23:12:46.949Z,61.62
2023-06-10T23:15:41.048Z,61.67
2023-06-10T23:18:35.122Z,61.85
2023-06-10T23:21:34.773Z,61.75
2023-06-10T23:24:31.193Z,61.49
2023-06-10T23:27:25.632Z,61.43
2023-06-10T23:30:02.751Z,61.45
2023-06-10T23:32:39.615Z,61.53
2023-06-10T23:35:34.240Z,61.57
2023-06-10T23:38:13.870Z,61.52
2023-06-10T23:41:08.211Z,61.37
2023-06-10T23:44:02.094Z,61.24
2023-06-10T23:46:55.610Z,61.47
2023-06-10T23:49:49.978Z,61.42
2023-06-10T23:52:44.062Z,61.17
2023-06-10T23:55:24.034Z,61.45
2023-06-10T23:58:17.738Z,61.24
